Terminal Aerodrome Forecast
Issued by NWS

Home | Current Version | Previous Version | Text Only | Print | Product List | Glossary On
Versions: 1 2 3 4 5 6 7 8 9 10 11 12 13 14 15 16 17 18 19
029
FTUS43 KUNR 302324
TAFGCC
TAF
KGCC 302324Z 3100/3124 05011KT P6SM VCSH OVC050
     FM310400 16010KT P6SM BKN040
     FM311200 03009KT P6SM -RA OVC020=

USA.gov is the U.S. government's official web portal to all federal, state and local government web resources and services.